首页
METAR-TAF:

METAR-TAF

机场 :

阿爾伯克基國際機場

阿布奎基, 新墨西哥州, 美国

纬度: 35-02-30N, 经度: 106-36-53W, 海拔: 1631米

当前天气观测

该预报发布于39分钟前的14:52 UTC
风速4节,风向西
温度 25°C
湿度 47%
气压 1023 hPa
能見度: 16.1公里
少量云层高于13000英尺
散云层高于23000英尺

METAR: KABQ 241452Z 26004KT 10SM FEW130 SCT230 25/13 A3020 RMK AO2 SLP133 T02500128 52009

时间: 09:31 (15:31 UTC)

预报

该预报发布于4小时和11分钟前的11:20 UTC
预报有效从24日的 12点(UTC)到 25日的 12点(UTC)
风速6节,风向多变
能見度: 10公里
多云层高于12000英尺
从 24日的 1800点(UTC)
风速8节,风向西
能見度: 10公里
多云层高于10000英尺
附近有阵雨
短暂存在
从 24日的 22点(UTC)到 25日的 02点(UTC)
风速15节,风向多变,有时为25节阵风
小阵雨
从 25日的 0300点(UTC)
风速7节,风向南转西南
能見度: 10公里
多云层高于13000英尺
从 25日的 0600点(UTC)
风速5节,风向东南
能見度: 10公里
多云层高于12000英尺

TAF: KABQ 241120Z 2412/2512 VRB06KT P6SM BKN120 FM241800 26008KT P6SM VCSH BKN100 TEMPO 2422/2502 VRB15G25KT -SHRA FM250300 21007KT P6SM BKN130 FM250600 13005KT P6SM BKN120

超过4000个机场的气象观测和天气预报(METAR&TAF报告)。

可查询的气象台以黄色和红色小点在地图上表示。

将鼠标移到小点上方,可查看气象台名称。

然后点击查看天气观测和预报。

如需切换地图:点击带黑十字的绿色按钮放大地图;点击带横线的绿色按钮缩小地图;或者点击绿色箭头查看邻近地区的地图。


METAR-TAF: